sensor_id;sensor_type;location;lat;lon;timestamp;temperature;humidity
19292;DHT22;9779;51.756;7.450;2022-12-29T00:02:09;9.60;99.90
19292;DHT22;9779;51.756;7.450;2022-12-29T00:04:35;9.50;99.90
19292;DHT22;9779;51.756;7.450;2022-12-29T00:07:01;9.60;99.90
19292;DHT22;9779;51.756;7.450;2022-12-29T00:09:30;9.60;99.90
19292;DHT22;9779;51.756;7.450;2022-12-29T00:11:58;9.60;99.90
19292;DHT22;9779;51.756;7.450;2022-12-29T00:14:23;9.60;99.90
19292;DHT22;9779;51.756;7.450;2022-12-29T00:17:08;9.60;99.90
19292;DHT22;9779;51.756;7.450;2022-12-29T00:19:33;9.70;99.90
19292;DHT22;9779;51.756;7.450;2022-12-29T00:22:17;9.60;99.90
19292;DHT22;9779;51.756;7.450;2022-12-29T00:25:03;9.70;99.90
19292;DHT22;9779;51.756;7.450;2022-12-29T00:27:34;9.70;99.90
19292;DHT22;9779;51.756;7.450;2022-12-29T00:30:22;9.70;99.90
19292;DHT22;9779;51.756;7.450;2022-12-29T00:33:18;9.80;99.90
19292;DHT22;9779;51.756;7.450;2022-12-29T00:36:16;9.70;99.90
19292;DHT22;9779;51.756;7.450;2022-12-29T00:38:48;9.70;99.90
19292;DHT22;9779;51.756;7.450;2022-12-29T00:41:33;9.70;99.90
19292;DHT22;9779;51.756;7.450;2022-12-29T00:44:17;9.80;99.90
19292;DHT22;9779;51.756;7.450;2022-12-29T00:46:43;9.70;99.90
19292;DHT22;9779;51.756;7.450;2022-12-29T00:49:11;9.80;99.90
19292;DHT22;9779;51.756;7.450;2022-12-29T00:52:00;9.70;99.90
19292;DHT22;9779;51.756;7.450;2022-12-29T00:54:27;9.70;99.90
19292;DHT22;9779;51.756;7.450;2022-12-29T00:56:53;9.70;99.90
19292;DHT22;9779;51.756;7.450;2022-12-29T00:59:20;9.70;99.90
19292;DHT22;9779;51.756;7.450;2022-12-29T01:01:46;9.70;99.90
19292;DHT22;9779;51.756;7.450;2022-12-29T01:04:12;9.70;99.90
19292;DHT22;9779;51.756;7.450;2022-12-29T01:06:39;9.70;99.90
19292;DHT22;9779;51.756;7.450;2022-12-29T01:09:05;9.70;99.90
19292;DHT22;9779;51.756;7.450;2022-12-29T01:11:50;9.70;99.90
19292;DHT22;9779;51.756;7.450;2022-12-29T01:14:16;9.70;99.90
19292;DHT22;9779;51.756;7.450;2022-12-29T01:16:42;9.70;99.90
19292;DHT22;9779;51.756;7.450;2022-12-29T01:19:09;9.70;99.90
19292;DHT22;9779;51.756;7.450;2022-12-29T01:21:35;9.70;99.90
19292;DHT22;9779;51.756;7.450;2022-12-29T01:24:01;9.80;99.90
19292;DHT22;9779;51.756;7.450;2022-12-29T01:26:26;9.80;99.90
19292;DHT22;9779;51.756;7.450;2022-12-29T01:28:52;9.80;99.90
19292;DHT22;9779;51.756;7.450;2022-12-29T01:31:17;9.80;99.90
19292;DHT22;9779;51.756;7.450;2022-12-29T01:33:43;9.80;99.90
19292;DHT22;9779;51.756;7.450;2022-12-29T01:36:12;9.80;99.90
19292;DHT22;9779;51.756;7.450;2022-12-29T01:38:39;9.80;99.90
19292;DHT22;9779;51.756;7.450;2022-12-29T01:41:06;9.80;99.90
19292;DHT22;9779;51.756;7.450;2022-12-29T01:43:47;9.70;99.90
19292;DHT22;9779;51.756;7.450;2022-12-29T01:46:40;9.70;99.90
19292;DHT22;9779;51.756;7.450;2022-12-29T01:49:22;9.70;99.90
19292;DHT22;9779;51.756;7.450;2022-12-29T01:51:52;9.70;99.90
19292;DHT22;9779;51.756;7.450;2022-12-29T01:54:28;9.80;99.90
19292;DHT22;9779;51.756;7.450;2022-12-29T01:56:57;9.70;99.90
19292;DHT22;9779;51.756;7.450;2022-12-29T01:59:29;9.80;99.90
19292;DHT22;9779;51.756;7.450;2022-12-29T02:01:56;9.80;99.90
19292;DHT22;9779;51.756;7.450;2022-12-29T02:04:23;9.80;99.90
19292;DHT22;9779;51.756;7.450;2022-12-29T02:06:53;9.80;99.90
19292;DHT22;9779;51.756;7.450;2022-12-29T02:09:20;9.80;99.90
19292;DHT22;9779;51.756;7.450;2022-12-29T02:11:46;9.80;99.90
19292;DHT22;9779;51.756;7.450;2022-12-29T02:14:13;9.90;99.90
19292;DHT22;9779;51.756;7.450;2022-12-29T02:31:20;10.00;99.90
19292;DHT22;9779;51.756;7.450;2022-12-29T02:34:10;10.10;99.90
19292;DHT22;9779;51.756;7.450;2022-12-29T02:37:02;10.10;99.90
19292;DHT22;9779;51.756;7.450;2022-12-29T02:39:40;10.20;99.90
19292;DHT22;9779;51.756;7.450;2022-12-29T02:42:21;10.20;99.90
19292;DHT22;9779;51.756;7.450;2022-12-29T02:47:46;10.30;99.90
19292;DHT22;9779;51.756;7.450;2022-12-29T02:50:20;10.30;99.90
19292;DHT22;9779;51.756;7.450;2022-12-29T02:53:04;10.40;99.90
19292;DHT22;9779;51.756;7.450;2022-12-29T02:55:32;10.40;99.90
19292;DHT22;9779;51.756;7.450;2022-12-29T02:58:16;10.40;99.90
19292;DHT22;9779;51.756;7.450;2022-12-29T03:01:04;10.40;99.90
19292;DHT22;9779;51.756;7.450;2022-12-29T03:03:42;10.50;99.90
19292;DHT22;9779;51.756;7.450;2022-12-29T03:11:58;10.50;99.90
19292;DHT22;9779;51.756;7.450;2022-12-29T03:17:29;10.50;99.90
19292;DHT22;9779;51.756;7.450;2022-12-29T03:20:06;10.50;99.90
19292;DHT22;9779;51.756;7.450;2022-12-29T03:22:36;10.60;99.90
19292;DHT22;9779;51.756;7.450;2022-12-29T03:25:13;10.60;99.90
19292;DHT22;9779;51.756;7.450;2022-12-29T03:27:45;10.60;99.90
19292;DHT22;9779;51.756;7.450;2022-12-29T03:30:11;10.60;99.90
19292;DHT22;9779;51.756;7.450;2022-12-29T03:32:49;10.70;99.90
19292;DHT22;9779;51.756;7.450;2022-12-29T03:35:17;10.70;99.90
19292;DHT22;9779;51.756;7.450;2022-12-29T03:37:55;10.80;99.90
19292;DHT22;9779;51.756;7.450;2022-12-29T03:40:23;10.70;99.90
19292;DHT22;9779;51.756;7.450;2022-12-29T03:42:50;10.80;99.90
19292;DHT22;9779;51.756;7.450;2022-12-29T03:45:17;10.80;99.90
19292;DHT22;9779;51.756;7.450;2022-12-29T03:47:43;10.80;99.90
19292;DHT22;9779;51.756;7.450;2022-12-29T03:50:12;10.70;99.90
19292;DHT22;9779;51.756;7.450;2022-12-29T03:52:37;10.60;99.90
19292;DHT22;9779;51.756;7.450;2022-12-29T03:55:03;10.60;99.90
19292;DHT22;9779;51.756;7.450;2022-12-29T03:57:29;10.60;99.90
19292;DHT22;9779;51.756;7.450;2022-12-29T03:59:55;10.60;99.90
19292;DHT22;9779;51.756;7.450;2022-12-29T04:02:20;10.50;99.90
19292;DHT22;9779;51.756;7.450;2022-12-29T04:04:46;10.50;99.90
19292;DHT22;9779;51.756;7.450;2022-12-29T04:07:11;10.50;99.90
19292;DHT22;9779;51.756;7.450;2022-12-29T04:09:37;10.40;99.90
19292;DHT22;9779;51.756;7.450;2022-12-29T04:12:03;10.40;99.90
19292;DHT22;9779;51.756;7.450;2022-12-29T04:14:28;10.30;99.90
19292;DHT22;9779;51.756;7.450;2022-12-29T04:16:54;10.30;99.90
19292;DHT22;9779;51.756;7.450;2022-12-29T04:19:19;10.30;99.90
19292;DHT22;9779;51.756;7.450;2022-12-29T04:21:45;10.30;99.90
19292;DHT22;9779;51.756;7.450;2022-12-29T04:24:11;10.20;99.90
19292;DHT22;9779;51.756;7.450;2022-12-29T04:26:38;10.20;99.90
19292;DHT22;9779;51.756;7.450;2022-12-29T04:29:03;10.20;99.90
19292;DHT22;9779;51.756;7.450;2022-12-29T04:31:29;10.20;99.90
19292;DHT22;9779;51.756;7.450;2022-12-29T04:33:55;10.20;99.90
19292;DHT22;9779;51.756;7.450;2022-12-29T04:36:22;10.20;99.90
19292;DHT22;9779;51.756;7.450;2022-12-29T04:38:48;10.20;99.90
19292;DHT22;9779;51.756;7.450;2022-12-29T04:41:14;10.20;99.90
19292;DHT22;9779;51.756;7.450;2022-12-29T04:43:39;10.20;99.90
19292;DHT22;9779;51.756;7.450;2022-12-29T04:46:05;10.20;99.90
19292;DHT22;9779;51.756;7.450;2022-12-29T04:48:31;10.20;99.90
19292;DHT22;9779;51.756;7.450;2022-12-29T04:50:57;10.10;99.90
19292;DHT22;9779;51.756;7.450;2022-12-29T04:53:22;10.10;99.90
19292;DHT22;9779;51.756;7.450;2022-12-29T04:55:50;10.10;99.90
19292;DHT22;9779;51.756;7.450;2022-12-29T04:58:15;10.10;99.90
19292;DHT22;9779;51.756;7.450;2022-12-29T05:00:41;10.10;99.90
19292;DHT22;9779;51.756;7.450;2022-12-29T05:03:06;10.10;99.90
19292;DHT22;9779;51.756;7.450;2022-12-29T05:05:32;10.10;99.90
19292;DHT22;9779;51.756;7.450;2022-12-29T05:07:57;10.10;99.90
19292;DHT22;9779;51.756;7.450;2022-12-29T05:10:23;10.00;99.90
19292;DHT22;9779;51.756;7.450;2022-12-29T05:12:49;10.10;99.90
19292;DHT22;9779;51.756;7.450;2022-12-29T05:15:14;10.10;99.90
19292;DHT22;9779;51.756;7.450;2022-12-29T05:17:40;10.10;99.90
19292;DHT22;9779;51.756;7.450;2022-12-29T05:20:06;10.20;99.90
19292;DHT22;9779;51.756;7.450;2022-12-29T05:22:32;10.30;99.90
19292;DHT22;9779;51.756;7.450;2022-12-29T05:24:57;10.30;99.90
19292;DHT22;9779;51.756;7.450;2022-12-29T05:27:23;10.10;99.90
19292;DHT22;9779;51.756;7.450;2022-12-29T05:29:48;9.90;99.90
19292;DHT22;9779;51.756;7.450;2022-12-29T05:32:14;9.80;99.90
19292;DHT22;9779;51.756;7.450;2022-12-29T05:34:39;9.60;99.90
19292;DHT22;9779;51.756;7.450;2022-12-29T05:37:05;9.50;99.90
19292;DHT22;9779;51.756;7.450;2022-12-29T05:39:31;9.50;99.90
19292;DHT22;9779;51.756;7.450;2022-12-29T05:41:56;9.40;99.90
19292;DHT22;9779;51.756;7.450;2022-12-29T05:44:22;9.40;99.90
19292;DHT22;9779;51.756;7.450;2022-12-29T05:46:47;9.40;99.90
19292;DHT22;9779;51.756;7.450;2022-12-29T05:49:13;9.40;99.90
19292;DHT22;9779;51.756;7.450;2022-12-29T05:51:38;9.40;99.90
19292;DHT22;9779;51.756;7.450;2022-12-29T05:54:04;9.40;99.90
19292;DHT22;9779;51.756;7.450;2022-12-29T05:56:29;9.40;99.90
19292;DHT22;9779;51.756;7.450;2022-12-29T05:58:55;9.40;99.90
19292;DHT22;9779;51.756;7.450;2022-12-29T06:01:21;9.40;99.90
19292;DHT22;9779;51.756;7.450;2022-12-29T06:03:46;9.40;99.90
19292;DHT22;9779;51.756;7.450;2022-12-29T06:06:12;9.40;99.90
19292;DHT22;9779;51.756;7.450;2022-12-29T06:08:37;9.40;99.90
19292;DHT22;9779;51.756;7.450;2022-12-29T06:11:03;9.40;99.90
19292;DHT22;9779;51.756;7.450;2022-12-29T06:13:28;9.40;99.90
19292;DHT22;9779;51.756;7.450;2022-12-29T06:15:54;9.40;99.90
19292;DHT22;9779;51.756;7.450;2022-12-29T06:18:19;9.40;99.90
19292;DHT22;9779;51.756;7.450;2022-12-29T06:20:45;9.40;99.90
19292;DHT22;9779;51.756;7.450;2022-12-29T06:23:11;9.40;99.90
19292;DHT22;9779;51.756;7.450;2022-12-29T06:25:38;9.40;99.90
19292;DHT22;9779;51.756;7.450;2022-12-29T06:28:04;9.40;99.90
19292;DHT22;9779;51.756;7.450;2022-12-29T06:30:31;9.40;99.90
19292;DHT22;9779;51.756;7.450;2022-12-29T06:32:58;9.60;99.90
19292;DHT22;9779;51.756;7.450;2022-12-29T06:35:23;9.60;99.90
19292;DHT22;9779;51.756;7.450;2022-12-29T06:37:49;9.60;99.90
19292;DHT22;9779;51.756;7.450;2022-12-29T06:40:14;9.70;99.90
19292;DHT22;9779;51.756;7.450;2022-12-29T06:42:40;9.70;99.90
19292;DHT22;9779;51.756;7.450;2022-12-29T06:45:06;9.70;99.90
19292;DHT22;9779;51.756;7.450;2022-12-29T06:47:33;9.80;99.90
19292;DHT22;9779;51.756;7.450;2022-12-29T06:49:59;9.80;99.90
19292;DHT22;9779;51.756;7.450;2022-12-29T06:52:24;9.80;99.90
19292;DHT22;9779;51.756;7.450;2022-12-29T06:54:50;9.90;99.90
19292;DHT22;9779;51.756;7.450;2022-12-29T06:57:16;9.90;99.90
19292;DHT22;9779;51.756;7.450;2022-12-29T06:59:41;9.80;99.90
19292;DHT22;9779;51.756;7.450;2022-12-29T07:02:11;9.80;99.90
19292;DHT22;9779;51.756;7.450;2022-12-29T07:04:37;9.80;99.90
19292;DHT22;9779;51.756;7.450;2022-12-29T07:07:02;9.80;99.90
19292;DHT22;9779;51.756;7.450;2022-12-29T07:09:28;9.90;99.90
19292;DHT22;9779;51.756;7.450;2022-12-29T07:11:53;9.90;99.90
19292;DHT22;9779;51.756;7.450;2022-12-29T07:14:19;9.90;99.90
19292;DHT22;9779;51.756;7.450;2022-12-29T07:16:44;9.90;99.90
19292;DHT22;9779;51.756;7.450;2022-12-29T07:19:10;9.90;99.90
19292;DHT22;9779;51.756;7.450;2022-12-29T07:21:36;9.90;99.90
19292;DHT22;9779;51.756;7.450;2022-12-29T07:24:01;10.00;99.90
19292;DHT22;9779;51.756;7.450;2022-12-29T07:26:27;10.00;99.90
19292;DHT22;9779;51.756;7.450;2022-12-29T07:28:53;10.00;99.90
19292;DHT22;9779;51.756;7.450;2022-12-29T07:31:20;10.00;99.90
19292;DHT22;9779;51.756;7.450;2022-12-29T07:33:46;10.00;99.90
19292;DHT22;9779;51.756;7.450;2022-12-29T07:36:13;10.00;99.90
19292;DHT22;9779;51.756;7.450;2022-12-29T07:38:40;10.00;99.90
19292;DHT22;9779;51.756;7.450;2022-12-29T07:41:05;10.00;99.90
19292;DHT22;9779;51.756;7.450;2022-12-29T07:43:31;10.00;99.90
19292;DHT22;9779;51.756;7.450;2022-12-29T07:45:56;10.00;99.90
19292;DHT22;9779;51.756;7.450;2022-12-29T07:48:22;10.00;99.90
19292;DHT22;9779;51.756;7.450;2022-12-29T07:50:48;10.10;99.90
19292;DHT22;9779;51.756;7.450;2022-12-29T07:53:13;10.10;99.90
19292;DHT22;9779;51.756;7.450;2022-12-29T07:55:39;10.00;99.90
19292;DHT22;9779;51.756;7.450;2022-12-29T07:58:05;10.00;99.90
19292;DHT22;9779;51.756;7.450;2022-12-29T08:00:31;10.10;99.90
19292;DHT22;9779;51.756;7.450;2022-12-29T08:02:56;10.20;99.90
19292;DHT22;9779;51.756;7.450;2022-12-29T08:05:22;10.20;99.90
19292;DHT22;9779;51.756;7.450;2022-12-29T08:07:48;10.20;99.90
19292;DHT22;9779;51.756;7.450;2022-12-29T08:10:14;10.20;99.90
19292;DHT22;9779;51.756;7.450;2022-12-29T08:12:40;10.20;99.90
19292;DHT22;9779;51.756;7.450;2022-12-29T08:15:07;10.20;99.90
19292;DHT22;9779;51.756;7.450;2022-12-29T08:17:33;10.20;99.90
19292;DHT22;9779;51.756;7.450;2022-12-29T08:19:59;10.30;99.90
19292;DHT22;9779;51.756;7.450;2022-12-29T08:22:25;10.30;99.90
19292;DHT22;9779;51.756;7.450;2022-12-29T08:24:50;10.30;99.90
19292;DHT22;9779;51.756;7.450;2022-12-29T08:27:16;10.40;99.90
19292;DHT22;9779;51.756;7.450;2022-12-29T08:29:42;10.40;99.90
19292;DHT22;9779;51.756;7.450;2022-12-29T08:32:07;10.30;99.90
19292;DHT22;9779;51.756;7.450;2022-12-29T08:34:33;10.40;99.90
19292;DHT22;9779;51.756;7.450;2022-12-29T08:36:58;10.40;99.90
19292;DHT22;9779;51.756;7.450;2022-12-29T08:39:24;10.40;99.90
19292;DHT22;9779;51.756;7.450;2022-12-29T08:41:49;10.50;99.90
19292;DHT22;9779;51.756;7.450;2022-12-29T08:44:15;10.60;99.90
19292;DHT22;9779;51.756;7.450;2022-12-29T08:46:40;10.60;99.90
19292;DHT22;9779;51.756;7.450;2022-12-29T08:49:06;10.60;99.90
19292;DHT22;9779;51.756;7.450;2022-12-29T08:51:32;10.60;99.90
19292;DHT22;9779;51.756;7.450;2022-12-29T08:53:58;10.50;99.90
19292;DHT22;9779;51.756;7.450;2022-12-29T08:56:23;10.50;99.90
19292;DHT22;9779;51.756;7.450;2022-12-29T08:58:50;10.50;99.90
19292;DHT22;9779;51.756;7.450;2022-12-29T09:01:16;10.40;99.90
19292;DHT22;9779;51.756;7.450;2022-12-29T09:03:41;10.40;99.90
19292;DHT22;9779;51.756;7.450;2022-12-29T09:06:07;10.40;99.90
19292;DHT22;9779;51.756;7.450;2022-12-29T09:08:32;10.50;99.90
19292;DHT22;9779;51.756;7.450;2022-12-29T09:13:36;10.40;99.90
19292;DHT22;9779;51.756;7.450;2022-12-29T09:16:02;10.50;99.90
19292;DHT22;9779;51.756;7.450;2022-12-29T09:18:28;10.50;99.90
19292;DHT22;9779;51.756;7.450;2022-12-29T09:21:01;10.40;99.90
19292;DHT22;9779;51.756;7.450;2022-12-29T09:23:28;10.40;99.90
19292;DHT22;9779;51.756;7.450;2022-12-29T09:25:54;10.40;99.90
19292;DHT22;9779;51.756;7.450;2022-12-29T09:28:20;10.50;99.90
19292;DHT22;9779;51.756;7.450;2022-12-29T09:30:46;10.50;99.90
19292;DHT22;9779;51.756;7.450;2022-12-29T09:33:12;10.50;99.90
19292;DHT22;9779;51.756;7.450;2022-12-29T09:35:42;10.50;99.90
19292;DHT22;9779;51.756;7.450;2022-12-29T09:38:07;10.60;99.90
19292;DHT22;9779;51.756;7.450;2022-12-29T09:40:34;10.70;99.90
19292;DHT22;9779;51.756;7.450;2022-12-29T09:48:23;10.90;99.90
19292;DHT22;9779;51.756;7.450;2022-12-29T09:50:56;10.90;99.90
19292;DHT22;9779;51.756;7.450;2022-12-29T09:53:30;10.90;99.90
19292;DHT22;9779;51.756;7.450;2022-12-29T09:55:59;10.80;99.90
19292;DHT22;9779;51.756;7.450;2022-12-29T09:58:38;10.80;99.90
19292;DHT22;9779;51.756;7.450;2022-12-29T10:01:09;10.80;99.90
19292;DHT22;9779;51.756;7.450;2022-12-29T10:03:50;10.80;99.90
19292;DHT22;9779;51.756;7.450;2022-12-29T10:06:33;10.80;99.90
19292;DHT22;9779;51.756;7.450;2022-12-29T10:09:23;10.80;99.90
19292;DHT22;9779;51.756;7.450;2022-12-29T10:12:19;10.70;99.90
19292;DHT22;9779;51.756;7.450;2022-12-29T10:25:24;10.70;99.90
19292;DHT22;9779;51.756;7.450;2022-12-29T10:27:53;10.70;99.90
19292;DHT22;9779;51.756;7.450;2022-12-29T10:30:20;10.70;99.90
19292;DHT22;9779;51.756;7.450;2022-12-29T10:32:52;10.70;99.90
19292;DHT22;9779;51.756;7.450;2022-12-29T10:35:25;10.70;99.90
19292;DHT22;9779;51.756;7.450;2022-12-29T10:43:30;10.70;99.90
19292;DHT22;9779;51.756;7.450;2022-12-29T10:46:02;10.80;99.90
19292;DHT22;9779;51.756;7.450;2022-12-29T10:48:32;10.80;99.90
19292;DHT22;9779;51.756;7.450;2022-12-29T10:50:59;10.70;99.90
19292;DHT22;9779;51.756;7.450;2022-12-29T10:53:42;10.80;99.90
19292;DHT22;9779;51.756;7.450;2022-12-29T10:56:25;10.80;99.90
19292;DHT22;9779;51.756;7.450;2022-12-29T10:58:54;10.80;99.90
19292;DHT22;9779;51.756;7.450;2022-12-29T11:01:21;10.80;99.90
19292;DHT22;9779;51.756;7.450;2022-12-29T11:03:54;10.80;99.90
19292;DHT22;9779;51.756;7.450;2022-12-29T11:06:26;10.90;99.90
19292;DHT22;9779;51.756;7.450;2022-12-29T11:09:19;10.90;99.90
19292;DHT22;9779;51.756;7.450;2022-12-29T11:11:47;10.90;99.90
19292;DHT22;9779;51.756;7.450;2022-12-29T11:14:17;10.90;99.90
19292;DHT22;9779;51.756;7.450;2022-12-29T11:16:43;10.90;99.90
19292;DHT22;9779;51.756;7.450;2022-12-29T11:19:25;10.90;99.90
19292;DHT22;9779;51.756;7.450;2022-12-29T11:21:51;10.90;99.90
19292;DHT22;9779;51.756;7.450;2022-12-29T11:24:29;10.90;99.90
19292;DHT22;9779;51.756;7.450;2022-12-29T11:27:20;10.90;99.90
19292;DHT22;9779;51.756;7.450;2022-12-29T11:29:52;10.90;99.90
19292;DHT22;9779;51.756;7.450;2022-12-29T11:32:19;10.90;99.90
19292;DHT22;9779;51.756;7.450;2022-12-29T11:34:46;10.90;99.90
19292;DHT22;9779;51.756;7.450;2022-12-29T11:39:58;10.90;99.90
19292;DHT22;9779;51.756;7.450;2022-12-29T11:42:37;10.90;99.90
19292;DHT22;9779;51.756;7.450;2022-12-29T11:45:15;10.90;99.90
19292;DHT22;9779;51.756;7.450;2022-12-29T11:47:44;10.90;99.90
19292;DHT22;9779;51.756;7.450;2022-12-29T11:50:17;10.90;99.90
19292;DHT22;9779;51.756;7.450;2022-12-29T11:52:43;10.90;99.90
19292;DHT22;9779;51.756;7.450;2022-12-29T11:55:21;10.90;99.90
19292;DHT22;9779;51.756;7.450;2022-12-29T11:57:50;10.90;99.90
19292;DHT22;9779;51.756;7.450;2022-12-29T12:00:16;10.90;99.90
19292;DHT22;9779;51.756;7.450;2022-12-29T12:05:54;10.90;99.90
19292;DHT22;9779;51.756;7.450;2022-12-29T12:08:42;10.90;99.90
19292;DHT22;9779;51.756;7.450;2022-12-29T12:11:16;10.90;99.90
19292;DHT22;9779;51.756;7.450;2022-12-29T12:16:24;10.90;99.90
19292;DHT22;9779;51.756;7.450;2022-12-29T12:18:57;10.90;99.90
19292;DHT22;9779;51.756;7.450;2022-12-29T12:21:40;10.90;99.90
19292;DHT22;9779;51.756;7.450;2022-12-29T12:24:36;10.90;99.90
19292;DHT22;9779;51.756;7.450;2022-12-29T12:30:05;10.90;99.90
19292;DHT22;9779;51.756;7.450;2022-12-29T12:32:57;11.00;99.90
19292;DHT22;9779;51.756;7.450;2022-12-29T12:43:55;10.80;99.90
19292;DHT22;9779;51.756;7.450;2022-12-29T13:03:32;10.70;99.90
19292;DHT22;9779;51.756;7.450;2022-12-29T13:11:28;10.70;99.90
19292;DHT22;9779;51.756;7.450;2022-12-29T13:14:22;10.60;99.90
19292;DHT22;9779;51.756;7.450;2022-12-29T13:22:54;10.60;99.90
19292;DHT22;9779;51.756;7.450;2022-12-29T13:27:56;10.50;99.90
19292;DHT22;9779;51.756;7.450;2022-12-29T13:31:12;10.60;99.90
19292;DHT22;9779;51.756;7.450;2022-12-29T13:36:13;10.60;99.90
19292;DHT22;9779;51.756;7.450;2022-12-29T13:38:47;10.60;99.90
19292;DHT22;9779;51.756;7.450;2022-12-29T13:43:55;10.60;99.90
19292;DHT22;9779;51.756;7.450;2022-12-29T13:46:26;10.60;99.90
19292;DHT22;9779;51.756;7.450;2022-12-29T13:48:58;10.60;99.90
19292;DHT22;9779;51.756;7.450;2022-12-29T13:51:25;10.50;99.90
19292;DHT22;9779;51.756;7.450;2022-12-29T13:56:38;10.50;99.90
19292;DHT22;9779;51.756;7.450;2022-12-29T14:01:40;10.60;99.90
19292;DHT22;9779;51.756;7.450;2022-12-29T14:04:21;10.50;99.90
19292;DHT22;9779;51.756;7.450;2022-12-29T14:06:58;10.60;99.90
19292;DHT22;9779;51.756;7.450;2022-12-29T14:09:45;10.60;99.90
19292;DHT22;9779;51.756;7.450;2022-12-29T14:12:40;10.50;99.90
19292;DHT22;9779;51.756;7.450;2022-12-29T14:17:39;10.60;99.90
19292;DHT22;9779;51.756;7.450;2022-12-29T14:20:16;10.60;99.90
19292;DHT22;9779;51.756;7.450;2022-12-29T14:23:15;10.50;99.90
19292;DHT22;9779;51.756;7.450;2022-12-29T14:31:04;10.60;99.90
19292;DHT22;9779;51.756;7.450;2022-12-29T14:33:32;10.50;99.90
19292;DHT22;9779;51.756;7.450;2022-12-29T14:38:59;10.50;99.90
19292;DHT22;9779;51.756;7.450;2022-12-29T14:41:40;10.50;99.90
19292;DHT22;9779;51.756;7.450;2022-12-29T14:47:04;10.40;99.90
19292;DHT22;9779;51.756;7.450;2022-12-29T14:49:39;10.40;99.90
19292;DHT22;9779;51.756;7.450;2022-12-29T14:52:25;10.40;99.90
19292;DHT22;9779;51.756;7.450;2022-12-29T14:54:58;10.40;99.90
19292;DHT22;9779;51.756;7.450;2022-12-29T14:57:37;10.40;99.90
19292;DHT22;9779;51.756;7.450;2022-12-29T15:02:41;10.40;99.90
19292;DHT22;9779;51.756;7.450;2022-12-29T15:05:32;10.30;99.90
19292;DHT22;9779;51.756;7.450;2022-12-29T15:07:59;10.30;99.90
19292;DHT22;9779;51.756;7.450;2022-12-29T15:10:27;10.30;99.90
19292;DHT22;9779;51.756;7.450;2022-12-29T15:13:03;10.20;99.90
19292;DHT22;9779;51.756;7.450;2022-12-29T15:15:36;10.20;99.90
19292;DHT22;9779;51.756;7.450;2022-12-29T15:18:19;10.20;99.90
19292;DHT22;9779;51.756;7.450;2022-12-29T15:20:51;10.20;99.90
19292;DHT22;9779;51.756;7.450;2022-12-29T15:23:18;10.20;99.90
19292;DHT22;9779;51.756;7.450;2022-12-29T15:25:55;10.10;99.90
19292;DHT22;9779;51.756;7.450;2022-12-29T15:28:22;10.10;99.90
19292;DHT22;9779;51.756;7.450;2022-12-29T15:30:54;10.10;99.90
19292;DHT22;9779;51.756;7.450;2022-12-29T15:33:22;10.10;99.90
19292;DHT22;9779;51.756;7.450;2022-12-29T15:35:51;10.00;99.90
19292;DHT22;9779;51.756;7.450;2022-12-29T15:38:35;10.10;99.90
19292;DHT22;9779;51.756;7.450;2022-12-29T15:41:05;10.00;99.90
19292;DHT22;9779;51.756;7.450;2022-12-29T15:46:21;10.00;99.90
19292;DHT22;9779;51.756;7.450;2022-12-29T15:48:47;10.00;99.90
19292;DHT22;9779;51.756;7.450;2022-12-29T15:51:29;10.00;99.90
19292;DHT22;9779;51.756;7.450;2022-12-29T15:53:56;10.00;99.90
19292;DHT22;9779;51.756;7.450;2022-12-29T15:56:22;10.00;99.90
19292;DHT22;9779;51.756;7.450;2022-12-29T15:58:49;10.00;99.90
19292;DHT22;9779;51.756;7.450;2022-12-29T16:01:24;10.00;99.90
19292;DHT22;9779;51.756;7.450;2022-12-29T16:03:53;10.10;99.90
19292;DHT22;9779;51.756;7.450;2022-12-29T16:06:31;10.10;99.90
19292;DHT22;9779;51.756;7.450;2022-12-29T16:13:56;10.00;99.90
19292;DHT22;9779;51.756;7.450;2022-12-29T16:16:27;10.10;99.90
19292;DHT22;9779;51.756;7.450;2022-12-29T16:18:54;10.00;99.90
19292;DHT22;9779;51.756;7.450;2022-12-29T16:21:25;10.10;99.90
19292;DHT22;9779;51.756;7.450;2022-12-29T16:23:53;10.00;99.90
19292;DHT22;9779;51.756;7.450;2022-12-29T16:26:22;10.00;99.90
19292;DHT22;9779;51.756;7.450;2022-12-29T16:28:51;10.00;99.90
19292;DHT22;9779;51.756;7.450;2022-12-29T16:31:23;10.00;99.90
19292;DHT22;9779;51.756;7.450;2022-12-29T16:33:52;10.00;99.90
19292;DHT22;9779;51.756;7.450;2022-12-29T16:36:51;10.00;99.90
19292;DHT22;9779;51.756;7.450;2022-12-29T16:39:37;10.00;99.90
19292;DHT22;9779;51.756;7.450;2022-12-29T16:42:33;10.00;99.90
19292;DHT22;9779;51.756;7.450;2022-12-29T16:50:29;9.90;99.90
19292;DHT22;9779;51.756;7.450;2022-12-29T16:52:55;9.90;99.90
19292;DHT22;9779;51.756;7.450;2022-12-29T16:55:20;9.90;99.90
19292;DHT22;9779;51.756;7.450;2022-12-29T16:57:48;9.80;99.90
19292;DHT22;9779;51.756;7.450;2022-12-29T17:00:19;9.80;99.90
19292;DHT22;9779;51.756;7.450;2022-12-29T17:02:46;9.70;99.90
19292;DHT22;9779;51.756;7.450;2022-12-29T17:05:16;9.70;99.90
19292;DHT22;9779;51.756;7.450;2022-12-29T17:07:42;9.60;99.90
19292;DHT22;9779;51.756;7.450;2022-12-29T17:10:09;9.60;99.90
19292;DHT22;9779;51.756;7.450;2022-12-29T17:12:35;9.50;99.90
19292;DHT22;9779;51.756;7.450;2022-12-29T17:17:49;9.30;99.90
19292;DHT22;9779;51.756;7.450;2022-12-29T17:20:18;9.20;99.90
19292;DHT22;9779;51.756;7.450;2022-12-29T17:22:45;9.00;99.90
19292;DHT22;9779;51.756;7.450;2022-12-29T17:25:13;9.00;99.90
19292;DHT22;9779;51.756;7.450;2022-12-29T17:28:03;9.00;99.90
19292;DHT22;9779;51.756;7.450;2022-12-29T17:30:31;8.90;99.90
19292;DHT22;9779;51.756;7.450;2022-12-29T17:33:04;8.90;99.90
19292;DHT22;9779;51.756;7.450;2022-12-29T17:35:30;8.80;99.90
19292;DHT22;9779;51.756;7.450;2022-12-29T17:37:55;8.80;99.90
19292;DHT22;9779;51.756;7.450;2022-12-29T17:40:25;8.80;99.90
19292;DHT22;9779;51.756;7.450;2022-12-29T17:42:53;8.70;99.90
19292;DHT22;9779;51.756;7.450;2022-12-29T17:45:23;8.70;99.90
19292;DHT22;9779;51.756;7.450;2022-12-29T17:47:49;8.60;99.90
19292;DHT22;9779;51.756;7.450;2022-12-29T17:50:17;8.60;99.90
19292;DHT22;9779;51.756;7.450;2022-12-29T17:52:51;8.50;99.90
19292;DHT22;9779;51.756;7.450;2022-12-29T17:55:20;8.50;99.90
19292;DHT22;9779;51.756;7.450;2022-12-29T17:57:46;8.40;99.90
19292;DHT22;9779;51.756;7.450;2022-12-29T18:00:23;8.30;99.90
19292;DHT22;9779;51.756;7.450;2022-12-29T18:02:52;8.20;99.90
19292;DHT22;9779;51.756;7.450;2022-12-29T18:05:29;8.20;99.90
19292;DHT22;9779;51.756;7.450;2022-12-29T18:07:58;8.20;99.90
19292;DHT22;9779;51.756;7.450;2022-12-29T18:10:26;8.10;99.90
19292;DHT22;9779;51.756;7.450;2022-12-29T18:12:55;8.10;99.90
19292;DHT22;9779;51.756;7.450;2022-12-29T18:18:00;8.10;99.90
19292;DHT22;9779;51.756;7.450;2022-12-29T18:20:29;8.10;99.90
19292;DHT22;9779;51.756;7.450;2022-12-29T18:22:55;8.10;99.90
19292;DHT22;9779;51.756;7.450;2022-12-29T18:25:41;8.00;99.90
19292;DHT22;9779;51.756;7.450;2022-12-29T18:28:09;8.00;99.90
19292;DHT22;9779;51.756;7.450;2022-12-29T18:30:35;8.00;99.90
19292;DHT22;9779;51.756;7.450;2022-12-29T18:33:01;7.90;99.90
19292;DHT22;9779;51.756;7.450;2022-12-29T18:38:15;7.90;99.90
19292;DHT22;9779;51.756;7.450;2022-12-29T18:40:41;7.80;99.90
19292;DHT22;9779;51.756;7.450;2022-12-29T18:43:06;7.80;99.90